• Join FlightAware (Why Join?)
  • Login
  • US Flag 
12:29PM EDT


 

Airport Tracker/Info


-or-


 

Live Flight TrackerFlight Track Log ✈ SWA1649 ✈ 16-May-2012 ✈ KMDW - KBDL

Flight Track Log - Related Links

Times and Time Zones

All times are in EDT time to prevent confusion due to time zone crossing. See the SWA1649 flight status page for this flight to view local times or setup timezone preferences in your user account.

Time Position Orientation Groundspeed Altitude Reporting Facility
EDT Latitude Longitude Course Direction KTS MPH feet Rate Location/Type
10:25PM 41.7617 -86.6083 273° West  Level FlightAware Approximate
10:26PM 41.7667 -86.4557 272° West  Level FlightAware Approximate
10:27PM 41.7687 -86.3033 272° West  Level FlightAware Approximate
10:28PM 41.7766 -86.1508 272° West  Level FlightAware Approximate
10:29PM 41.8167 -86.0098 270° West  Level FlightAware Approximate
10:30PM 41.8346 -85.8601 269° West  Level FlightAware Approximate
10:31PM 41.7972 -87.5897 89° East 227 261 6,400  Level Chicago Center
10:35PM 41.8031 -87.0964 77° East 351 404 18,400 2,880 Climbing Chicago Center
10:36PM 41.8272 -86.9561 83° East 371 427 20,900 2,400 Climbing Chicago Center
10:37PM 41.8406 -86.8025 84° East 392 451 23,300 2,400 Climbing Chicago Center
10:38PM 41.8536 -86.6431 85° East 419 482 25,700 2,100 Climbing Chicago Center
10:39PM 41.8644 -86.4808 83° East 440 506 27,600 1,800 Climbing Chicago Center
10:40PM 41.8808 -86.3097 85° East 447 514 29,300 1,680 Climbing Chicago Center
10:41PM 41.8908 -86.1392 85° East 452 520 31,000 1,800 Climbing Chicago Center
10:42PM 41.9025 -85.9656 84° East 457 526 32,900 1,560 Climbing Chicago Center
10:43PM 41.9158 -85.7919 85° East 466 536 34,200 1,380 Climbing Chicago Center
10:45PM 41.9419 -85.4022 85° East 473 544 37,200 1,320 Climbing Cleveland Center
10:46PM 41.9536 -85.2242 90° East 473 544 38,300 900 Climbing Cleveland Center
10:47PM 41.9544 -85.0483 91° East 473 544 39,000 300 Climbing Cleveland Center
10:48PM 41.9508 -84.8694 82° East 479 551 39,000  Level Cleveland Center
10:49PM 41.9697 -84.6917 84° East 472 543 39,000  Level Cleveland Center
10:50PM 41.9842 -84.5194 80° East 472 543 39,000  Level Cleveland Center
10:51PM 42.0067 -84.3447 82° East 472 543 39,000  Level Cleveland Center
10:52PM 42.0222 -84.1892 83° East 466 536 39,000  Level Cleveland Center
10:53PM 42.0381 -84.0083 81° East 478 550 39,000  Level Cleveland Center
10:54PM 42.0578 -83.8331 83° East 478 550 39,000  Level Cleveland Center
10:55PM 42.0731 -83.6575 83° East 483 556 39,000  Level Cleveland Center
10:56PM 42.0903 -83.4736 82° East 483 556 39,000  Level Cleveland Center
10:57PM 42.1092 -83.2953 84° East 474 545 39,000  Level Cleveland Center
10:58PM 42.1236 -83.1167 82° East 479 551 39,000  Level Cleveland Center
10:59PM 42.1422 -82.9328 83° East 485 558 39,000  Level Cleveland Center
11:00PM 42.1583 -82.7567 82° East 478 550 39,000  Level Cleveland Center
11:01PM 42.1761 -82.5781 85° East 478 550 39,000  Level Cleveland Center
11:02PM 42.1875 -82.3933 83° East 484 557 39,000  Level Cleveland Center
11:03PM 42.2028 -82.2144 83° East 489 563 39,000  Level Cleveland Center
11:04PM 42.2200 -82.0103 83° East 489 563 39,000  Level Cleveland Center
11:05PM 42.2367 -81.8283 83° East 484 557 39,000  Level Cleveland Center
11:06PM 42.2531 -81.6464 85° East 484 557 39,000  Level Cleveland Center
11:07PM 42.2650 -81.4614 84° East 484 557 39,000  Level Cleveland Center
11:08PM 42.2786 -81.2931 84° East 489 563 39,000  Level Cleveland Center
11:09PM 42.2922 -81.1108 84° East 489 563 39,000  Level Cleveland Center
11:10PM 42.3056 -80.9256 84° East 494 568 39,000  Level Cleveland Center
11:11PM 42.3206 -80.7433 86° East 494 568 39,000  Level Cleveland Center
11:12PM 42.3311 -80.5578 85° East 494 568 39,000  Level Cleveland Center
11:13PM 42.3433 -80.3583 85° East 494 568 39,000  Level Cleveland Center
11:14PM 42.3553 -80.1731 85° East 494 568 39,000  Level Cleveland Center
11:15PM 42.3669 -79.9931 83° East 487 560 39,000  Level Cleveland Center
11:16PM 42.3825 -79.8103 85° East 487 560 39,000  Level Cleveland Center
11:17PM 42.3936 -79.6272 86° East 482 555 39,000  Level Cleveland Center
11:18PM 42.4025 -79.4444 85° East 482 555 39,000  Level Cleveland Center
11:19PM 42.4150 -79.2614 86° East 482 555 39,000  Level Cleveland Center
11:20PM 42.4269 -79.0361 86° East 487 560 39,000  Level Cleveland Center
11:21PM 42.4367 -78.8503 86° East 492 566 39,000  Level Cleveland Center
11:22PM 42.4467 -78.6756 86° East 508 585 39,000 -300 Level Cleveland Center
11:23PM 42.4558 -78.4978 86° East 508 585 38,400 -840 Descending Cleveland Center
11:24PM 42.4669 -78.3006 87° East 502 578 37,400 -960 Descending Cleveland Center
11:25PM 42.4733 -78.1117 86° East 502 578 36,500 -960 Descending Cleveland Center
11:26PM 42.4836 -77.9197 86° East 502 578 35,500 -540 Descending Cleveland Center
11:28PM 42.5022 -77.5019 87° East 493 567 35,000 -180 Descending Boston Center
11:29PM 42.5108 -77.3053 88° East 514 592 35,000  Level Boston Center
11:30PM 42.5169 -77.1083 86° East 514 592 35,000  Level Boston Center
11:31PM 42.5269 -76.9147 87° East 514 592 35,000  Level Boston Center
11:32PM 42.5344 -76.7208 88° East 514 592 35,000  Level Boston Center
11:33PM 42.5394 -76.5267 90° East 514 592 35,000 -240 Level Boston Center
11:34PM 42.5400 -76.3319 97° East 514 592 34,600 -720 Descending Boston Center
11:35PM 42.5233 -76.1422 95° East 514 592 33,600 -1,020 Descending Boston Center
11:36PM 42.5111 -75.9442 95° East 519 597 32,600 -1,020 Descending Boston Center
11:37PM 42.4981 -75.7519 96° East 524 603 31,600 -1,020 Descending Boston Center
11:38PM 42.4825 -75.5625 96° East 519 597 30,600 -1,020 Descending Boston Center
11:39PM 42.4686 -75.3786 96° East 506 582 29,600 -1,020 Descending Boston Center
11:40PM 42.4561 -75.2119 96° East 499 574 28,600 -1,080 Descending Boston Center
11:41PM 42.4417 -75.0342 96° East 493 567 27,500 -1,080 Descending Boston Center
11:42PM 42.4289 -74.8564 97° East 481 554 26,500 -1,020 Descending Boston Center
11:43PM 42.4136 -74.6814 96° East 476 548 25,500 -1,020 Descending Boston Center
11:44PM 42.4003 -74.5067 96° East 471 542 24,500 -1,020 Descending Boston Center
11:45PM 42.3867 -74.3431 97° East 460 529 23,500 -1,020 Descending Boston Center
11:46PM 42.3725 -74.1797 97° East 444 511 22,500 -1,440 Descending Boston Center
11:47PM 42.3583 -74.0136 97° East 439 505 20,700 -2,220 Descending Boston Center
11:48PM 42.3419 -73.8333 96° East 445 512 18,100 -2,460 Descending Boston Center
11:49PM 42.3308 -73.6925 98° East 445 512 15,800 -2,340 Descending Boston Center
11:50PM 42.3178 -73.5661 98° East 429 494 14,200 -1,680 Descending Boston Center
11:51PM 42.3025 -73.4169 134° Southeast 398 458 13,000 -1,200 Descending Boston Center
11:52PM 42.2364 -73.3233 142° Southeast 347 399 11,900 -1,260 Descending Boston Center
11:53PM 42.1600 -73.2439 142° Southeast 341 392 10,500 -1,500 Descending Boston Center
11:54PM 42.0936 -73.1731 143° Southeast 317 365 8,900 -1,620 Descending Boston Center
11:55PM 42.0275 -73.1053 141° Southeast 299 344 7,300 -1,560 Descending Boston Center
11:56PM 41.9653 -73.0375 142° Southeast 287 330 5,800 -1,380 Descending Boston Center
11:57PM 41.9011 -72.9700 145° Southeast 280 322 4,600 -1,260 Descending Boston Center
11:58PM 41.8450 -72.9167 111° Southeast 277 319 3,400 -1,080 Descending Boston Center
11:59PM 41.8225 -72.8383 43° Northeast 246 283 2,600 -600 Descending Boston Center
12:00AM 41.8622 -72.7886 43° Northeast 198 228 2,200 -720 Descending Boston Center
12:01AM 41.8936 -72.7497 43° Northeast 143 165 1,200 -900 Descending Boston Center
12:02AM 41.9228 -72.7136 43° Northeast 142 163 500 -720 Descending Boston Center